sensor_id;sensor_type;location;lat;lon;timestamp;temperature;humidity
65396;HTU21D;52004;45.136;39.010;2023-05-10T00:00:26;11.23;74.74
65396;HTU21D;52004;45.136;39.010;2023-05-10T00:02:52;11.23;74.76
65396;HTU21D;52004;45.136;39.010;2023-05-10T00:05:18;11.23;74.76
65396;HTU21D;52004;45.136;39.010;2023-05-10T00:07:44;11.23;74.75
65396;HTU21D;52004;45.136;39.010;2023-05-10T00:10:10;11.22;74.72
65396;HTU21D;52004;45.136;39.010;2023-05-10T00:12:36;11.19;74.72
65396;HTU21D;52004;45.136;39.010;2023-05-10T00:15:03;11.18;74.74
65396;HTU21D;52004;45.136;39.010;2023-05-10T00:17:29;11.19;74.72
65396;HTU21D;52004;45.136;39.010;2023-05-10T00:19:55;11.17;74.75
65396;HTU21D;52004;45.136;39.010;2023-05-10T00:22:21;11.17;74.77
65396;HTU21D;52004;45.136;39.010;2023-05-10T00:24:47;11.18;74.76
65396;HTU21D;52004;45.136;39.010;2023-05-10T00:27:13;11.18;74.77
65396;HTU21D;52004;45.136;39.010;2023-05-10T00:29:39;11.17;74.80
65396;HTU21D;52004;45.136;39.010;2023-05-10T00:32:05;11.16;74.75
65396;HTU21D;52004;45.136;39.010;2023-05-10T00:34:31;11.15;74.78
65396;HTU21D;52004;45.136;39.010;2023-05-10T00:36:57;11.13;74.80
65396;HTU21D;52004;45.136;39.010;2023-05-10T00:39:23;11.14;74.77
65396;HTU21D;52004;45.136;39.010;2023-05-10T00:41:49;11.12;74.74
65396;HTU21D;52004;45.136;39.010;2023-05-10T00:44:16;11.11;74.77
65396;HTU21D;52004;45.136;39.010;2023-05-10T00:46:43;11.12;74.77
65396;HTU21D;52004;45.136;39.010;2023-05-10T00:49:09;11.12;74.78
65396;HTU21D;52004;45.136;39.010;2023-05-10T00:51:36;11.12;74.76
65396;HTU21D;52004;45.136;39.010;2023-05-10T00:54:02;11.11;74.73
65396;HTU21D;52004;45.136;39.010;2023-05-10T00:56:28;11.09;74.76
65396;HTU21D;52004;45.136;39.010;2023-05-10T00:58:55;11.10;74.77
65396;HTU21D;52004;45.136;39.010;2023-05-10T01:01:22;11.08;74.77
65396;HTU21D;52004;45.136;39.010;2023-05-10T01:03:48;11.08;74.76
65396;HTU21D;52004;45.136;39.010;2023-05-10T01:06:14;11.08;74.80
65396;HTU21D;52004;45.136;39.010;2023-05-10T01:08:41;0.00;74.79
65396;HTU21D;52004;45.136;39.010;2023-05-10T01:11:07;11.07;74.82
65396;HTU21D;52004;45.136;39.010;2023-05-10T01:13:34;11.08;74.82
65396;HTU21D;52004;45.136;39.010;2023-05-10T01:16:01;11.08;74.85
65396;HTU21D;52004;45.136;39.010;2023-05-10T01:18:29;11.10;74.83
65396;HTU21D;52004;45.136;39.010;2023-05-10T01:29:19;11.10;74.79
65396;HTU21D;52004;45.136;39.010;2023-05-10T01:34:35;11.08;74.80
65396;HTU21D;52004;45.136;39.010;2023-05-10T01:37:11;11.05;74.80
65396;HTU21D;52004;45.136;39.010;2023-05-10T01:42:08;11.05;74.81
65396;HTU21D;52004;45.136;39.010;2023-05-10T01:47:06;11.03;74.81
65396;HTU21D;52004;45.136;39.010;2023-05-10T01:52:25;11.00;74.83
65396;HTU21D;52004;45.136;39.010;2023-05-10T01:54:56;11.00;74.85
65396;HTU21D;52004;45.136;39.010;2023-05-10T01:57:25;10.99;74.86
65396;HTU21D;52004;45.136;39.010;2023-05-10T01:59:52;10.99;74.85
65396;HTU21D;52004;45.136;39.010;2023-05-10T02:02:21;10.99;74.86
65396;HTU21D;52004;45.136;39.010;2023-05-10T02:04:49;10.98;74.85
65396;HTU21D;52004;45.136;39.010;2023-05-10T02:07:15;10.96;74.87
65396;HTU21D;52004;45.136;39.010;2023-05-10T02:09:42;10.95;74.90
65396;HTU21D;52004;45.136;39.010;2023-05-10T02:12:09;10.93;74.87
65396;HTU21D;52004;45.136;39.010;2023-05-10T02:14:37;10.93;74.92
65396;HTU21D;52004;45.136;39.010;2023-05-10T02:17:05;10.90;74.92
65396;HTU21D;52004;45.136;39.010;2023-05-10T02:19:32;10.88;74.91
65396;HTU21D;52004;45.136;39.010;2023-05-10T02:21:59;10.87;74.95
65396;HTU21D;52004;45.136;39.010;2023-05-10T02:24:26;10.85;74.90
65396;HTU21D;52004;45.136;39.010;2023-05-10T02:26:53;10.83;74.96
65396;HTU21D;52004;45.136;39.010;2023-05-10T02:29:20;10.83;74.99
65396;HTU21D;52004;45.136;39.010;2023-05-10T02:31:46;10.82;74.98
65396;HTU21D;52004;45.136;39.010;2023-05-10T02:34:13;10.83;74.97
65396;HTU21D;52004;45.136;39.010;2023-05-10T02:36:39;10.86;74.97
65396;HTU21D;52004;45.136;39.010;2023-05-10T02:39:05;10.86;74.96
65396;HTU21D;52004;45.136;39.010;2023-05-10T02:41:35;10.86;74.94
65396;HTU21D;52004;45.136;39.010;2023-05-10T02:44:01;10.87;74.92
65396;HTU21D;52004;45.136;39.010;2023-05-10T02:46:28;10.88;74.90
65396;HTU21D;52004;45.136;39.010;2023-05-10T02:48:55;10.88;74.89
65396;HTU21D;52004;45.136;39.010;2023-05-10T02:51:21;10.86;74.92
65396;HTU21D;52004;45.136;39.010;2023-05-10T02:53:49;10.85;74.90
65396;HTU21D;52004;45.136;39.010;2023-05-10T02:56:20;10.86;74.91
65396;HTU21D;52004;45.136;39.010;2023-05-10T02:58:49;10.86;74.94
65396;HTU21D;52004;45.136;39.010;2023-05-10T03:01:15;10.86;74.93
65396;HTU21D;52004;45.136;39.010;2023-05-10T03:03:41;10.86;74.97
65396;HTU21D;52004;45.136;39.010;2023-05-10T03:06:07;10.87;74.93
65396;HTU21D;52004;45.136;39.010;2023-05-10T03:08:33;10.85;74.92
65396;HTU21D;52004;45.136;39.010;2023-05-10T03:11:09;10.82;74.96
65396;HTU21D;52004;45.136;39.010;2023-05-10T03:13:46;10.83;75.00
65396;HTU21D;52004;45.136;39.010;2023-05-10T03:16:45;10.84;75.00
65396;HTU21D;52004;45.136;39.010;2023-05-10T03:19:30;10.84;75.00
65396;HTU21D;52004;45.136;39.010;2023-05-10T03:21:59;10.86;74.99
65396;HTU21D;52004;45.136;39.010;2023-05-10T03:24:27;10.86;74.97
65396;HTU21D;52004;45.136;39.010;2023-05-10T03:26:56;10.87;74.99
65396;HTU21D;52004;45.136;39.010;2023-05-10T03:29:25;10.87;74.97
65396;HTU21D;52004;45.136;39.010;2023-05-10T03:31:51;10.87;75.00
65396;HTU21D;52004;45.136;39.010;2023-05-10T03:34:23;10.85;75.02
65396;HTU21D;52004;45.136;39.010;2023-05-10T03:36:49;10.88;75.07
65396;HTU21D;52004;45.136;39.010;2023-05-10T03:39:14;10.90;75.01
65396;HTU21D;52004;45.136;39.010;2023-05-10T03:41:42;0.00;75.01
65396;HTU21D;52004;45.136;39.010;2023-05-10T03:44:08;10.92;75.05
65396;HTU21D;52004;45.136;39.010;2023-05-10T03:46:34;10.95;75.05
65396;HTU21D;52004;45.136;39.010;2023-05-10T03:49:02;10.96;75.07
65396;HTU21D;52004;45.136;39.010;2023-05-10T03:51:28;10.96;75.02
65396;HTU21D;52004;45.136;39.010;2023-05-10T03:53:54;10.99;75.02
65396;HTU21D;52004;45.136;39.010;2023-05-10T03:56:21;11.02;74.96
65396;HTU21D;52004;45.136;39.010;2023-05-10T03:58:47;11.01;74.99
65396;HTU21D;52004;45.136;39.010;2023-05-10T04:01:13;11.02;74.97
65396;HTU21D;52004;45.136;39.010;2023-05-10T04:03:39;11.00;74.99
65396;HTU21D;52004;45.136;39.010;2023-05-10T04:06:05;11.00;75.01
65396;HTU21D;52004;45.136;39.010;2023-05-10T04:08:32;11.02;75.02
65396;HTU21D;52004;45.136;39.010;2023-05-10T04:11:07;11.02;74.98
65396;HTU21D;52004;45.136;39.010;2023-05-10T04:13:34;11.03;74.96
65396;HTU21D;52004;45.136;39.010;2023-05-10T04:16:00;11.00;74.90
65396;HTU21D;52004;45.136;39.010;2023-05-10T04:18:26;10.98;74.85
65396;HTU21D;52004;45.136;39.010;2023-05-10T04:20:53;10.94;74.92
65396;HTU21D;52004;45.136;39.010;2023-05-10T04:23:19;10.90;75.01
65396;HTU21D;52004;45.136;39.010;2023-05-10T04:25:45;10.92;75.11
65396;HTU21D;52004;45.136;39.010;2023-05-10T04:28:10;10.95;75.15
65396;HTU21D;52004;45.136;39.010;2023-05-10T04:30:36;10.98;75.15
65396;HTU21D;52004;45.136;39.010;2023-05-10T04:33:02;0.00;75.16
65396;HTU21D;52004;45.136;39.010;2023-05-10T04:35:28;11.08;75.20
65396;HTU21D;52004;45.136;39.010;2023-05-10T04:37:55;11.12;75.18
65396;HTU21D;52004;45.136;39.010;2023-05-10T04:40:21;11.15;75.06
65396;HTU21D;52004;45.136;39.010;2023-05-10T04:42:46;11.15;74.99
65396;HTU21D;52004;45.136;39.010;2023-05-10T04:45:12;11.17;75.00
65396;HTU21D;52004;45.136;39.010;2023-05-10T04:47:40;11.18;74.99
65396;HTU21D;52004;45.136;39.010;2023-05-10T04:50:06;11.20;74.92
65396;HTU21D;52004;45.136;39.010;2023-05-10T04:52:32;11.20;74.91
65396;HTU21D;52004;45.136;39.010;2023-05-10T04:54:59;11.19;74.92
65396;HTU21D;52004;45.136;39.010;2023-05-10T04:57:25;11.22;74.92
65396;HTU21D;52004;45.136;39.010;2023-05-10T04:59:51;11.22;74.86
65396;HTU21D;52004;45.136;39.010;2023-05-10T05:02:17;11.23;74.86
65396;HTU21D;52004;45.136;39.010;2023-05-10T05:04:43;11.24;74.83
65396;HTU21D;52004;45.136;39.010;2023-05-10T05:07:09;11.22;74.80
65396;HTU21D;52004;45.136;39.010;2023-05-10T05:09:35;11.19;74.76
65396;HTU21D;52004;45.136;39.010;2023-05-10T05:12:01;11.17;74.73
65396;HTU21D;52004;45.136;39.010;2023-05-10T05:14:27;11.14;74.73
65396;HTU21D;52004;45.136;39.010;2023-05-10T05:16:53;11.12;74.78
65396;HTU21D;52004;45.136;39.010;2023-05-10T05:19:19;11.10;74.75
65396;HTU21D;52004;45.136;39.010;2023-05-10T05:21:44;11.08;74.75
65396;HTU21D;52004;45.136;39.010;2023-05-10T05:24:10;11.04;74.70
65396;HTU21D;52004;45.136;39.010;2023-05-10T05:26:38;11.00;74.68
65396;HTU21D;52004;45.136;39.010;2023-05-10T05:29:04;10.97;74.70
65396;HTU21D;52004;45.136;39.010;2023-05-10T05:31:29;10.94;74.75
65396;HTU21D;52004;45.136;39.010;2023-05-10T05:33:56;10.89;74.79
65396;HTU21D;52004;45.136;39.010;2023-05-10T05:36:22;10.90;74.89
65396;HTU21D;52004;45.136;39.010;2023-05-10T05:38:47;10.90;74.92
65396;HTU21D;52004;45.136;39.010;2023-05-10T05:41:13;10.95;74.96
65396;HTU21D;52004;45.136;39.010;2023-05-10T05:43:39;10.98;74.92
65396;HTU21D;52004;45.136;39.010;2023-05-10T05:46:05;10.98;74.81
65396;HTU21D;52004;45.136;39.010;2023-05-10T05:48:31;10.97;74.85
65396;HTU21D;52004;45.136;39.010;2023-05-10T05:50:57;10.98;74.85
65396;HTU21D;52004;45.136;39.010;2023-05-10T05:53:23;11.02;74.91
65396;HTU21D;52004;45.136;39.010;2023-05-10T05:55:55;11.05;74.91
65396;HTU21D;52004;45.136;39.010;2023-05-10T05:58:22;11.11;74.92
65396;HTU21D;52004;45.136;39.010;2023-05-10T06:00:48;11.12;74.84
65396;HTU21D;52004;45.136;39.010;2023-05-10T06:03:15;11.12;74.80
65396;HTU21D;52004;45.136;39.010;2023-05-10T06:05:41;0.00;74.67
65396;HTU21D;52004;45.136;39.010;2023-05-10T06:08:06;11.03;74.67
65396;HTU21D;52004;45.136;39.010;2023-05-10T06:10:33;10.99;74.59
65396;HTU21D;52004;45.136;39.010;2023-05-10T06:13:00;0.00;74.60
65396;HTU21D;52004;45.136;39.010;2023-05-10T06:15:26;10.86;74.63
65396;HTU21D;52004;45.136;39.010;2023-05-10T06:17:52;10.82;74.70
65396;HTU21D;52004;45.136;39.010;2023-05-10T06:20:18;10.80;74.73
65396;HTU21D;52004;45.136;39.010;2023-05-10T06:22:44;10.77;74.73
65396;HTU21D;52004;45.136;39.010;2023-05-10T06:25:10;10.78;74.82
65396;HTU21D;52004;45.136;39.010;2023-05-10T06:27:36;10.81;74.89
65396;HTU21D;52004;45.136;39.010;2023-05-10T06:30:03;10.86;75.01
65396;HTU21D;52004;45.136;39.010;2023-05-10T06:32:30;10.96;74.96
65396;HTU21D;52004;45.136;39.010;2023-05-10T06:34:56;11.02;74.90
65396;HTU21D;52004;45.136;39.010;2023-05-10T06:37:21;11.10;74.83
65396;HTU21D;52004;45.136;39.010;2023-05-10T06:39:47;11.13;74.76
65396;HTU21D;52004;45.136;39.010;2023-05-10T06:42:13;11.16;74.69
65396;HTU21D;52004;45.136;39.010;2023-05-10T06:44:40;11.18;74.57
65396;HTU21D;52004;45.136;39.010;2023-05-10T06:47:06;11.19;74.53
65396;HTU21D;52004;45.136;39.010;2023-05-10T06:49:32;11.18;74.61
65396;HTU21D;52004;45.136;39.010;2023-05-10T06:51:58;11.22;74.69
65396;HTU21D;52004;45.136;39.010;2023-05-10T06:54:23;11.31;74.86
65396;HTU21D;52004;45.136;39.010;2023-05-10T06:56:49;11.43;74.92
65396;HTU21D;52004;45.136;39.010;2023-05-10T06:59:15;11.55;74.85
65396;HTU21D;52004;45.136;39.010;2023-05-10T07:01:42;11.63;74.78
65396;HTU21D;52004;45.136;39.010;2023-05-10T07:04:08;0.00;74.74
65396;HTU21D;52004;45.136;39.010;2023-05-10T07:06:34;11.82;74.78
65396;HTU21D;52004;45.136;39.010;2023-05-10T07:09:00;11.93;74.90
65396;HTU21D;52004;45.136;39.010;2023-05-10T07:11:26;12.16;75.16
65396;HTU21D;52004;45.136;39.010;2023-05-10T07:13:52;12.38;75.44
65396;HTU21D;52004;45.136;39.010;2023-05-10T07:16:18;12.65;75.57
65396;HTU21D;52004;45.136;39.010;2023-05-10T07:18:44;12.87;75.35
65396;HTU21D;52004;45.136;39.010;2023-05-10T07:21:10;13.05;75.15
65396;HTU21D;52004;45.136;39.010;2023-05-10T07:23:36;13.16;74.83
65396;HTU21D;52004;45.136;39.010;2023-05-10T07:26:02;13.20;74.55
65396;HTU21D;52004;45.136;39.010;2023-05-10T07:28:28;13.23;74.32
65396;HTU21D;52004;45.136;39.010;2023-05-10T07:30:53;13.21;74.00
65396;HTU21D;52004;45.136;39.010;2023-05-10T07:33:19;13.17;73.83
65396;HTU21D;52004;45.136;39.010;2023-05-10T07:35:45;13.10;73.84
65396;HTU21D;52004;45.136;39.010;2023-05-10T07:38:11;13.08;73.87
65396;HTU21D;52004;45.136;39.010;2023-05-10T07:40:37;13.08;73.93
65396;HTU21D;52004;45.136;39.010;2023-05-10T07:43:03;13.10;73.97
65396;HTU21D;52004;45.136;39.010;2023-05-10T07:45:29;13.15;74.01
65396;HTU21D;52004;45.136;39.010;2023-05-10T07:47:55;13.20;74.07
65396;HTU21D;52004;45.136;39.010;2023-05-10T07:50:21;13.24;73.81
65396;HTU21D;52004;45.136;39.010;2023-05-10T07:52:47;13.21;73.57
65396;HTU21D;52004;45.136;39.010;2023-05-10T07:55:13;13.18;73.51
65396;HTU21D;52004;45.136;39.010;2023-05-10T07:57:40;13.16;73.53
65396;HTU21D;52004;45.136;39.010;2023-05-10T08:00:06;13.15;73.54
65396;HTU21D;52004;45.136;39.010;2023-05-10T08:02:38;13.11;73.41
65396;HTU21D;52004;45.136;39.010;2023-05-10T08:05:05;13.06;73.24
65396;HTU21D;52004;45.136;39.010;2023-05-10T08:07:31;12.95;73.14
65396;HTU21D;52004;45.136;39.010;2023-05-10T08:09:56;12.90;73.35
65396;HTU21D;52004;45.136;39.010;2023-05-10T08:12:22;12.86;73.44
65396;HTU21D;52004;45.136;39.010;2023-05-10T08:14:48;12.84;73.42
65396;HTU21D;52004;45.136;39.010;2023-05-10T08:17:15;12.81;73.36
65396;HTU21D;52004;45.136;39.010;2023-05-10T08:19:41;12.78;73.36
65396;HTU21D;52004;45.136;39.010;2023-05-10T08:22:07;12.80;73.48
65396;HTU21D;52004;45.136;39.010;2023-05-10T08:24:33;12.84;73.58
65396;HTU21D;52004;45.136;39.010;2023-05-10T08:27:06;12.91;73.65
65396;HTU21D;52004;45.136;39.010;2023-05-10T08:29:32;13.02;73.67
65396;HTU21D;52004;45.136;39.010;2023-05-10T08:31:58;13.09;73.57
65396;HTU21D;52004;45.136;39.010;2023-05-10T08:34:24;13.16;73.52
65396;HTU21D;52004;45.136;39.010;2023-05-10T08:36:50;13.21;73.44
65396;HTU21D;52004;45.136;39.010;2023-05-10T08:39:16;13.25;73.41
65396;HTU21D;52004;45.136;39.010;2023-05-10T08:41:43;0.00;73.37
65396;HTU21D;52004;45.136;39.010;2023-05-10T08:44:09;13.33;73.25
65396;HTU21D;52004;45.136;39.010;2023-05-10T08:46:35;13.32;73.03
65396;HTU21D;52004;45.136;39.010;2023-05-10T08:49:06;0.00;73.01
65396;HTU21D;52004;45.136;39.010;2023-05-10T08:51:35;13.27;72.99
65396;HTU21D;52004;45.136;39.010;2023-05-10T08:54:05;13.26;72.93
65396;HTU21D;52004;45.136;39.010;2023-05-10T08:56:31;13.26;73.03
65396;HTU21D;52004;45.136;39.010;2023-05-10T08:58:57;0.00;73.10
65396;HTU21D;52004;45.136;39.010;2023-05-10T09:01:23;13.34;73.07
65396;HTU21D;52004;45.136;39.010;2023-05-10T09:03:49;13.34;73.02
65396;HTU21D;52004;45.136;39.010;2023-05-10T09:06:16;0.00;73.06
65396;HTU21D;52004;45.136;39.010;2023-05-10T09:08:42;13.38;73.03
65396;HTU21D;52004;45.136;39.010;2023-05-10T09:11:09;13.39;72.91
65396;HTU21D;52004;45.136;39.010;2023-05-10T09:13:35;13.40;72.91
65396;HTU21D;52004;45.136;39.010;2023-05-10T09:16:01;13.43;72.86
65396;HTU21D;52004;45.136;39.010;2023-05-10T09:18:28;13.40;72.64
65396;HTU21D;52004;45.136;39.010;2023-05-10T09:20:54;13.37;72.65
65396;HTU21D;52004;45.136;39.010;2023-05-10T09:23:20;13.35;72.68
65396;HTU21D;52004;45.136;39.010;2023-05-10T09:26:02;13.37;72.67
65396;HTU21D;52004;45.136;39.010;2023-05-10T09:28:55;13.38;72.62
65396;HTU21D;52004;45.136;39.010;2023-05-10T09:31:21;13.41;72.61
65396;HTU21D;52004;45.136;39.010;2023-05-10T09:33:48;13.43;72.55
65396;HTU21D;52004;45.136;39.010;2023-05-10T09:36:14;13.49;72.73
65396;HTU21D;52004;45.136;39.010;2023-05-10T09:38:46;13.59;72.75
65396;HTU21D;52004;45.136;39.010;2023-05-10T09:41:20;13.71;73.01
65396;HTU21D;52004;45.136;39.010;2023-05-10T09:43:47;13.95;73.38
65396;HTU21D;52004;45.136;39.010;2023-05-10T09:46:13;14.13;73.32
65396;HTU21D;52004;45.136;39.010;2023-05-10T09:48:46;14.26;73.20
65396;HTU21D;52004;45.136;39.010;2023-05-10T09:51:22;14.34;72.88
65396;HTU21D;52004;45.136;39.010;2023-05-10T09:53:50;14.38;72.57
65396;HTU21D;52004;45.136;39.010;2023-05-10T09:56:34;14.33;72.09
65396;HTU21D;52004;45.136;39.010;2023-05-10T09:59:04;14.20;71.70
65396;HTU21D;52004;45.136;39.010;2023-05-10T10:01:31;14.07;71.71
65396;HTU21D;52004;45.136;39.010;2023-05-10T10:03:57;0.00;71.70
65396;HTU21D;52004;45.136;39.010;2023-05-10T10:06:24;13.86;71.73
65396;HTU21D;52004;45.136;39.010;2023-05-10T10:08:52;13.79;71.81
65396;HTU21D;52004;45.136;39.010;2023-05-10T10:11:19;13.73;71.87
65396;HTU21D;52004;45.136;39.010;2023-05-10T10:13:45;13.68;71.90
65396;HTU21D;52004;45.136;39.010;2023-05-10T10:16:11;13.69;72.09
65396;HTU21D;52004;45.136;39.010;2023-05-10T10:18:38;13.74;72.25
65396;HTU21D;52004;45.136;39.010;2023-05-10T10:21:07;13.85;72.45
65396;HTU21D;52004;45.136;39.010;2023-05-10T10:23:36;14.01;72.58
65396;HTU21D;52004;45.136;39.010;2023-05-10T10:26:03;14.14;72.50
65396;HTU21D;52004;45.136;39.010;2023-05-10T10:31:17;14.39;72.49
65396;HTU21D;52004;45.136;39.010;2023-05-10T10:34:33;14.54;72.38
65396;HTU21D;52004;45.136;39.010;2023-05-10T10:36:58;14.65;72.36
65396;HTU21D;52004;45.136;39.010;2023-05-10T10:39:29;0.00;72.27
65396;HTU21D;52004;45.136;39.010;2023-05-10T10:41:55;14.83;72.13
65396;HTU21D;52004;45.136;39.010;2023-05-10T10:47:00;14.81;71.48
65396;HTU21D;52004;45.136;39.010;2023-05-10T10:49:28;14.70;71.28
65396;HTU21D;52004;45.136;39.010;2023-05-10T10:52:15;14.60;71.08
65396;HTU21D;52004;45.136;39.010;2023-05-10T10:54:52;14.48;71.04
65396;HTU21D;52004;45.136;39.010;2023-05-10T10:57:19;14.39;71.21
65396;HTU21D;52004;45.136;39.010;2023-05-10T10:59:47;14.35;71.44
65396;HTU21D;52004;45.136;39.010;2023-05-10T11:04:57;14.42;71.73
65396;HTU21D;52004;45.136;39.010;2023-05-10T11:07:24;14.49;71.75
65396;HTU21D;52004;45.136;39.010;2023-05-10T11:09:50;14.59;71.78
65396;HTU21D;52004;45.136;39.010;2023-05-10T11:12:15;14.72;71.88
65396;HTU21D;52004;45.136;39.010;2023-05-10T11:14:42;14.84;71.83
65396;HTU21D;52004;45.136;39.010;2023-05-10T11:17:24;15.01;72.07
65396;HTU21D;52004;45.136;39.010;2023-05-10T11:20:06;15.16;71.87
65396;HTU21D;52004;45.136;39.010;2023-05-10T11:22:32;15.27;71.61
65396;HTU21D;52004;45.136;39.010;2023-05-10T11:25:14;15.31;71.38
65396;HTU21D;52004;45.136;39.010;2023-05-10T11:27:41;15.41;71.63
65396;HTU21D;52004;45.136;39.010;2023-05-10T11:30:08;15.54;71.64
65396;HTU21D;52004;45.136;39.010;2023-05-10T11:32:38;15.63;71.51
65396;HTU21D;52004;45.136;39.010;2023-05-10T11:35:08;15.71;71.48
65396;HTU21D;52004;45.136;39.010;2023-05-10T11:37:34;15.78;71.41
65396;HTU21D;52004;45.136;39.010;2023-05-10T11:40:00;15.84;71.33
65396;HTU21D;52004;45.136;39.010;2023-05-10T11:42:27;15.89;71.13
65396;HTU21D;52004;45.136;39.010;2023-05-10T11:44:53;15.87;70.82
65396;HTU21D;52004;45.136;39.010;2023-05-10T11:47:19;15.80;70.64
65396;HTU21D;52004;45.136;39.010;2023-05-10T11:49:46;15.75;70.64
65396;HTU21D;52004;45.136;39.010;2023-05-10T11:52:12;15.71;70.74
65396;HTU21D;52004;45.136;39.010;2023-05-10T11:54:44;15.70;70.79
65396;HTU21D;52004;45.136;39.010;2023-05-10T11:57:10;15.72;70.88
65396;HTU21D;52004;45.136;39.010;2023-05-10T11:59:37;15.76;70.93
65396;HTU21D;52004;45.136;39.010;2023-05-10T12:02:02;15.82;70.87
65396;HTU21D;52004;45.136;39.010;2023-05-10T12:04:29;15.84;70.77
65396;HTU21D;52004;45.136;39.010;2023-05-10T12:06:55;15.88;70.80
65396;HTU21D;52004;45.136;39.010;2023-05-10T12:09:21;15.97;71.03
65396;HTU21D;52004;45.136;39.010;2023-05-10T12:11:47;16.12;71.10
65396;HTU21D;52004;45.136;39.010;2023-05-10T12:14:13;16.22;70.91
65396;HTU21D;52004;45.136;39.010;2023-05-10T12:16:41;16.26;70.53
65396;HTU21D;52004;45.136;39.010;2023-05-10T12:19:08;16.25;70.43
65396;HTU21D;52004;45.136;39.010;2023-05-10T12:21:34;16.24;70.37
65396;HTU21D;52004;45.136;39.010;2023-05-10T12:24:03;16.22;70.21
65396;HTU21D;52004;45.136;39.010;2023-05-10T12:26:30;16.15;70.00
65396;HTU21D;52004;45.136;39.010;2023-05-10T12:31:53;15.92;69.54
65396;HTU21D;52004;45.136;39.010;2023-05-10T12:34:52;15.75;69.49
65396;HTU21D;52004;45.136;39.010;2023-05-10T12:37:11;15.62;69.60
65396;HTU21D;52004;45.136;39.010;2023-05-10T12:40:02;15.53;69.71
65396;HTU21D;52004;45.136;39.010;2023-05-10T12:42:30;15.47;69.71
65396;HTU21D;52004;45.136;39.010;2023-05-10T12:44:57;15.45;69.86
65396;HTU21D;52004;45.136;39.010;2023-05-10T12:47:23;15.42;69.81
65396;HTU21D;52004;45.136;39.010;2023-05-10T12:49:49;15.42;69.81
65396;HTU21D;52004;45.136;39.010;2023-05-10T12:52:15;15.43;69.92
65396;HTU21D;52004;45.136;39.010;2023-05-10T12:54:40;15.47;69.97
65396;HTU21D;52004;45.136;39.010;2023-05-10T12:57:07;15.52;69.92
65396;HTU21D;52004;45.136;39.010;2023-05-10T12:59:32;15.53;69.77
65396;HTU21D;52004;45.136;39.010;2023-05-10T13:01:58;15.54;69.68
65396;HTU21D;52004;45.136;39.010;2023-05-10T13:04:24;15.61;69.90
65396;HTU21D;52004;45.136;39.010;2023-05-10T13:06:50;0.00;69.87
65396;HTU21D;52004;45.136;39.010;2023-05-10T13:09:16;15.77;69.57
65396;HTU21D;52004;45.136;39.010;2023-05-10T13:11:42;15.76;69.38
65396;HTU21D;52004;45.136;39.010;2023-05-10T13:14:08;15.76;69.34
65396;HTU21D;52004;45.136;39.010;2023-05-10T13:16:34;15.80;69.45
65396;HTU21D;52004;45.136;39.010;2023-05-10T13:19:00;15.84;69.52
65396;HTU21D;52004;45.136;39.010;2023-05-10T13:21:26;15.91;69.55
65396;HTU21D;52004;45.136;39.010;2023-05-10T13:23:52;16.00;69.50
65396;HTU21D;52004;45.136;39.010;2023-05-10T13:26:18;16.01;69.13
65396;HTU21D;52004;45.136;39.010;2023-05-10T13:28:44;15.95;68.84
65396;HTU21D;52004;45.136;39.010;2023-05-10T13:31:11;15.88;68.76
65396;HTU21D;52004;45.136;39.010;2023-05-10T13:33:37;15.83;68.93
65396;HTU21D;52004;45.136;39.010;2023-05-10T13:36:03;15.83;68.98
65396;HTU21D;52004;45.136;39.010;2023-05-10T13:38:29;0.00;69.16
65396;HTU21D;52004;45.136;39.010;2023-05-10T13:40:55;15.98;69.30
65396;HTU21D;52004;45.136;39.010;2023-05-10T13:43:21;16.08;69.20
65396;HTU21D;52004;45.136;39.010;2023-05-10T13:45:47;0.00;69.26
65396;HTU21D;52004;45.136;39.010;2023-05-10T13:48:13;16.30;69.29
65396;HTU21D;52004;45.136;39.010;2023-05-10T13:50:39;16.40;69.04
65396;HTU21D;52004;45.136;39.010;2023-05-10T13:53:05;16.39;68.69
65396;HTU21D;52004;45.136;39.010;2023-05-10T13:55:31;16.35;68.51
65396;HTU21D;52004;45.136;39.010;2023-05-10T13:57:57;16.29;68.39
65396;HTU21D;52004;45.136;39.010;2023-05-10T14:00:23;16.19;68.13
65396;HTU21D;52004;45.136;39.010;2023-05-10T14:02:49;16.12;68.43
65396;HTU21D;52004;45.136;39.010;2023-05-10T14:05:15;16.12;68.45
65396;HTU21D;52004;45.136;39.010;2023-05-10T14:07:41;16.06;68.24
65396;HTU21D;52004;45.136;39.010;2023-05-10T14:10:07;16.00;68.27
65396;HTU21D;52004;45.136;39.010;2023-05-10T14:12:33;15.98;68.42
65396;HTU21D;52004;45.136;39.010;2023-05-10T14:14:59;16.01;68.49
65396;HTU21D;52004;45.136;39.010;2023-05-10T14:17:25;16.03;68.45
65396;HTU21D;52004;45.136;39.010;2023-05-10T14:19:50;16.07;68.46
65396;HTU21D;52004;45.136;39.010;2023-05-10T14:22:16;16.07;68.29
65396;HTU21D;52004;45.136;39.010;2023-05-10T14:24:43;16.08;68.21
65396;HTU21D;52004;45.136;39.010;2023-05-10T14:27:12;16.10;68.26
65396;HTU21D;52004;45.136;39.010;2023-05-10T14:29:38;16.13;68.23
65396;HTU21D;52004;45.136;39.010;2023-05-10T14:32:04;16.16;68.26
65396;HTU21D;52004;45.136;39.010;2023-05-10T14:34:30;16.18;68.18
65396;HTU21D;52004;45.136;39.010;2023-05-10T14:36:56;0.00;68.10
65396;HTU21D;52004;45.136;39.010;2023-05-10T14:39:22;0.00;67.97
65396;HTU21D;52004;45.136;39.010;2023-05-10T14:41:48;16.19;67.75
65396;HTU21D;52004;45.136;39.010;2023-05-10T14:44:14;16.11;67.53
65396;HTU21D;52004;45.136;39.010;2023-05-10T14:46:41;15.97;67.47
65396;HTU21D;52004;45.136;39.010;2023-05-10T14:49:07;15.83;67.59
65396;HTU21D;52004;45.136;39.010;2023-05-10T14:51:33;15.73;67.63
65396;HTU21D;52004;45.136;39.010;2023-05-10T14:53:59;15.62;67.74
65396;HTU21D;52004;45.136;39.010;2023-05-10T14:56:25;0.00;67.75
65396;HTU21D;52004;45.136;39.010;2023-05-10T14:58:51;15.47;67.82
65396;HTU21D;52004;45.136;39.010;2023-05-10T15:01:17;15.39;67.82
65396;HTU21D;52004;45.136;39.010;2023-05-10T15:03:43;15.34;67.84
65396;HTU21D;52004;45.136;39.010;2023-05-10T15:06:09;15.31;67.84
65396;HTU21D;52004;45.136;39.010;2023-05-10T15:08:35;15.30;67.84
65396;HTU21D;52004;45.136;39.010;2023-05-10T15:11:01;15.28;67.82
65396;HTU21D;52004;45.136;39.010;2023-05-10T15:13:27;0.00;67.78
65396;HTU21D;52004;45.136;39.010;2023-05-10T15:15:53;15.23;67.73
65396;HTU21D;52004;45.136;39.010;2023-05-10T15:18:19;15.17;67.69
65396;HTU21D;52004;45.136;39.010;2023-05-10T15:20:45;15.11;67.73
65396;HTU21D;52004;45.136;39.010;2023-05-10T15:23:11;15.09;67.72
65396;HTU21D;52004;45.136;39.010;2023-05-10T15:25:37;15.02;67.59
65396;HTU21D;52004;45.136;39.010;2023-05-10T15:28:03;14.93;67.58
65396;HTU21D;52004;45.136;39.010;2023-05-10T15:30:29;14.79;67.61
65396;HTU21D;52004;45.136;39.010;2023-05-10T15:32:55;14.72;67.71